createdAt,value
2023-05-11T00:01:30.166Z,5.10
2023-05-11T00:03:59.495Z,5.40
2023-05-11T00:06:27.436Z,5.15
2023-05-11T00:08:55.252Z,5.05
2023-05-11T00:11:23.843Z,5.53
2023-05-11T00:13:51.749Z,5.82
2023-05-11T00:16:19.492Z,5.55
2023-05-11T00:18:47.811Z,5.68
2023-05-11T00:21:17.110Z,6.47
2023-05-11T00:23:44.896Z,5.82
2023-05-11T00:26:12.925Z,5.32
2023-05-11T00:28:40.741Z,6.03
2023-05-11T00:31:08.554Z,6.22
2023-05-11T00:33:36.407Z,6.18
2023-05-11T00:36:04.769Z,5.05
2023-05-11T00:38:35.220Z,6.00
2023-05-11T00:41:03.156Z,5.57
2023-05-11T00:43:31.069Z,6.20
2023-05-11T00:45:58.992Z,6.13
2023-05-11T00:48:26.734Z,5.78
2023-05-11T00:50:54.972Z,6.70
2023-05-11T00:53:22.794Z,6.15
2023-05-11T00:55:52.728Z,6.25
2023-05-11T00:58:21.318Z,7.22
2023-05-11T01:00:49.185Z,6.88
2023-05-11T01:03:18.325Z,7.60
2023-05-11T01:05:51.452Z,6.07
2023-05-11T01:08:23.208Z,6.35
2023-05-11T01:11:00.006Z,7.55
2023-05-11T01:13:32.779Z,7.00
2023-05-11T01:16:06.866Z,7.15
2023-05-11T01:18:39.876Z,7.28
2023-05-11T01:21:10.908Z,7.40
2023-05-11T01:23:53.694Z,7.50
2023-05-11T01:26:36.602Z,7.15
2023-05-11T01:29:28.099Z,7.72
2023-05-11T01:31:59.661Z,8.13
2023-05-11T01:34:31.755Z,7.45
2023-05-11T01:37:10.418Z,8.05
2023-05-11T01:39:41.664Z,8.60
2023-05-11T01:42:11.052Z,8.57
2023-05-11T01:44:43.484Z,9.35
2023-05-11T01:47:14.336Z,9.90
2023-05-11T01:49:45.274Z,9.60
2023-05-11T01:52:14.716Z,9.10
2023-05-11T01:54:44.925Z,9.38
2023-05-11T01:57:14.083Z,11.70
2023-05-11T01:59:42.287Z,10.32
2023-05-11T02:02:13.328Z,10.52
2023-05-11T02:04:42.453Z,9.55
2023-05-11T02:07:13.105Z,10.65
2023-05-11T02:09:42.172Z,11.57
2023-05-11T02:12:12.466Z,11.60
2023-05-11T02:14:42.428Z,11.40
2023-05-11T02:17:11.285Z,12.25
2023-05-11T02:19:43.302Z,11.07
2023-05-11T02:22:13.635Z,12.10
2023-05-11T02:24:42.560Z,11.40
2023-05-11T02:27:11.095Z,10.98
2023-05-11T02:29:38.882Z,10.70
2023-05-11T02:32:10.298Z,11.90
2023-05-11T02:34:43.721Z,11.65
2023-05-11T02:37:14.725Z,11.55
2023-05-11T02:39:47.034Z,11.23
2023-05-11T02:42:19.967Z,11.23
2023-05-11T02:44:54.949Z,12.02
2023-05-11T02:47:26.944Z,11.10
2023-05-11T02:49:58.599Z,11.32
2023-05-11T02:52:29.329Z,11.50
2023-05-11T02:54:59.944Z,12.32
2023-05-11T02:57:28.230Z,13.25
2023-05-11T02:59:56.976Z,12.18
2023-05-11T03:02:25.053Z,12.75
2023-05-11T03:04:53.297Z,12.90
2023-05-11T03:07:23.429Z,12.48
2023-05-11T03:09:51.302Z,11.98
2023-05-11T03:12:19.902Z,11.65
2023-05-11T03:14:49.406Z,12.13
2023-05-11T03:17:18.525Z,12.80
2023-05-11T03:19:47.290Z,11.95
2023-05-11T03:22:16.337Z,13.50
2023-05-11T03:24:45.950Z,11.75
2023-05-11T03:27:14.192Z,12.52
2023-05-11T03:29:45.369Z,11.13
2023-05-11T03:32:13.811Z,12.43
2023-05-11T03:34:41.759Z,12.70
2023-05-11T03:37:12.514Z,13.15
2023-05-11T03:39:42.888Z,13.65
2023-05-11T03:42:15.260Z,13.88
2023-05-11T03:44:45.076Z,12.63
2023-05-11T03:47:14.258Z,12.70
2023-05-11T03:49:43.402Z,12.93
2023-05-11T03:52:11.446Z,13.32
2023-05-11T03:54:39.337Z,13.75
2023-05-11T03:57:07.118Z,14.35
2023-05-11T03:59:36.319Z,14.45
2023-05-11T04:02:04.217Z,14.57
2023-05-11T04:04:32.849Z,15.85
2023-05-11T04:07:01.035Z,13.68
2023-05-11T04:09:28.825Z,14.50
2023-05-11T04:11:56.584Z,16.48
2023-05-11T04:14:24.544Z,14.30
2023-05-11T04:16:53.700Z,15.63
2023-05-11T04:19:21.456Z,14.73
2023-05-11T04:21:49.349Z,13.98
2023-05-11T04:24:17.248Z,16.65
2023-05-11T04:26:45.174Z,15.30
2023-05-11T04:29:13.013Z,15.65
2023-05-11T04:31:40.823Z,15.25
2023-05-11T04:34:10.016Z,15.82
2023-05-11T04:36:37.815Z,15.23
2023-05-11T04:39:06.646Z,14.55
2023-05-11T04:41:35.620Z,15.48
2023-05-11T04:44:03.418Z,14.38
2023-05-11T04:46:31.327Z,14.15
2023-05-11T04:48:59.190Z,13.98
2023-05-11T04:51:28.476Z,16.75
2023-05-11T04:53:56.262Z,15.35
2023-05-11T04:56:24.078Z,14.25
2023-05-11T04:58:51.921Z,14.57
2023-05-11T05:01:20.015Z,13.20
2023-05-11T05:03:49.908Z,13.70
2023-05-11T05:06:17.884Z,15.40
2023-05-11T05:08:47.117Z,15.30
2023-05-11T05:11:14.916Z,14.82
2023-05-11T05:13:42.745Z,15.65
2023-05-11T05:16:11.458Z,15.30
2023-05-11T05:18:39.379Z,15.32
2023-05-11T05:21:07.351Z,15.60
2023-05-11T05:23:35.321Z,14.85
2023-05-11T05:26:04.565Z,14.50
2023-05-11T05:28:32.365Z,14.25
2023-05-11T05:31:00.197Z,15.02
2023-05-11T05:33:28.041Z,15.07
2023-05-11T05:35:55.943Z,14.35
2023-05-11T05:38:23.741Z,14.48
2023-05-11T05:40:51.590Z,13.60
2023-05-11T05:43:20.853Z,14.60
2023-05-11T05:45:48.870Z,13.98
2023-05-11T05:48:16.713Z,14.38
2023-05-11T05:50:44.542Z,13.60
2023-05-11T05:53:12.283Z,12.85
2023-05-11T05:55:40.083Z,12.95
2023-05-11T05:58:07.921Z,13.15
2023-05-11T06:00:37.645Z,13.65
2023-05-11T06:03:05.618Z,13.57
2023-05-11T06:05:33.516Z,13.98
2023-05-11T06:08:09.684Z,12.95
2023-05-11T06:10:38.902Z,13.48
2023-05-11T06:13:07.103Z,14.40
2023-05-11T06:15:34.885Z,13.52
2023-05-11T06:18:04.193Z,13.90
2023-05-11T06:20:33.316Z,12.15
2023-05-11T06:23:01.080Z,13.52
2023-05-11T06:25:28.875Z,14.05
2023-05-11T06:27:56.636Z,13.65
2023-05-11T06:30:24.413Z,14.95
2023-05-11T06:32:52.245Z,17.30
2023-05-11T06:35:22.494Z,15.13
2023-05-11T06:37:50.325Z,16.42
2023-05-11T06:40:18.352Z,17.13
2023-05-11T06:42:46.317Z,17.58
2023-05-11T06:45:14.184Z,17.40
2023-05-11T06:47:42.410Z,17.75
2023-05-11T06:50:10.982Z,18.25
2023-05-11T06:52:40.164Z,21.77
2023-05-11T06:55:09.157Z,20.08
2023-05-11T06:57:37.025Z,21.40
2023-05-11T07:00:05.541Z,20.00
2023-05-11T07:02:33.470Z,21.45
2023-05-11T07:05:01.621Z,22.70
2023-05-11T07:07:29.543Z,22.17
2023-05-11T07:09:58.903Z,23.80
2023-05-11T07:12:26.772Z,24.42
2023-05-11T07:14:54.621Z,25.63
2023-05-11T07:17:22.437Z,25.15
2023-05-11T07:19:52.256Z,25.65
2023-05-11T07:22:20.210Z,27.27
2023-05-11T07:24:48.416Z,27.08
2023-05-11T07:27:17.719Z,28.48
2023-05-11T07:29:45.452Z,30.38
2023-05-11T07:32:13.270Z,28.15
2023-05-11T07:34:41.703Z,26.92
2023-05-11T07:37:09.547Z,30.42
2023-05-11T07:39:37.474Z,26.50
2023-05-11T07:42:05.531Z,27.70
2023-05-11T07:44:35.497Z,32.20
2023-05-11T07:47:03.272Z,29.83
2023-05-11T07:49:39.888Z,30.95
2023-05-11T07:52:11.859Z,29.63
2023-05-11T07:54:40.516Z,30.50
2023-05-11T07:57:08.445Z,32.42
2023-05-11T07:59:37.846Z,30.70
2023-05-11T08:02:07.619Z,32.03
2023-05-11T08:04:36.185Z,42.13
2023-05-11T08:07:04.202Z,47.78
2023-05-11T08:09:32.256Z,48.88
2023-05-11T08:12:01.653Z,50.67
2023-05-11T08:14:29.531Z,52.20
2023-05-11T08:16:58.798Z,51.58
2023-05-11T08:19:26.790Z,51.63
2023-05-11T08:21:54.705Z,47.55
2023-05-11T08:24:22.568Z,51.55
2023-05-11T08:26:50.386Z,48.65
2023-05-11T08:29:18.206Z,43.85
2023-05-11T08:31:46.035Z,47.00
2023-05-11T08:34:19.669Z,43.13
2023-05-11T08:36:48.142Z,43.28
2023-05-11T08:39:24.854Z,44.00
2023-05-11T08:42:05.322Z,45.83
2023-05-11T08:44:34.154Z,43.65
2023-05-11T08:47:20.968Z,42.22
2023-05-11T08:49:52.323Z,43.25
2023-05-11T08:52:20.387Z,42.45
2023-05-11T08:54:48.465Z,41.83
2023-05-11T08:57:16.679Z,39.53
2023-05-11T08:59:46.885Z,42.60
2023-05-11T09:02:18.300Z,42.22
2023-05-11T09:04:48.905Z,40.40
2023-05-11T09:07:19.421Z,43.03
2023-05-11T09:09:47.543Z,41.28
2023-05-11T09:12:15.513Z,39.53
2023-05-11T09:14:43.730Z,37.28
2023-05-11T09:17:11.959Z,36.58
2023-05-11T09:19:57.816Z,39.70
2023-05-11T09:22:30.209Z,39.58
2023-05-11T09:24:59.839Z,40.90
2023-05-11T09:27:27.621Z,40.22
2023-05-11T09:29:55.976Z,38.05
2023-05-11T09:32:23.868Z,38.15
2023-05-11T09:34:51.934Z,38.67
2023-05-11T09:37:20.384Z,36.83
2023-05-11T09:40:25.156Z,35.30
2023-05-11T09:42:44.974Z,37.30
2023-05-11T09:45:12.745Z,35.78
2023-05-11T09:47:41.564Z,33.60
2023-05-11T09:50:18.732Z,32.92
2023-05-11T09:52:53.586Z,31.40
2023-05-11T09:55:22.755Z,31.23
2023-05-11T09:57:55.806Z,30.60
2023-05-11T10:00:25.158Z,26.95
2023-05-11T10:03:03.807Z,26.42
2023-05-11T10:05:32.867Z,24.55
2023-05-11T10:08:01.924Z,24.25
2023-05-11T10:10:32.567Z,22.13
2023-05-11T10:13:02.278Z,22.98
2023-05-11T10:15:33.376Z,22.35
2023-05-11T10:18:02.786Z,20.63
2023-05-11T10:20:30.610Z,22.17
2023-05-11T10:22:58.430Z,20.77
2023-05-11T10:25:27.624Z,19.15
2023-05-11T10:27:58.284Z,21.08
2023-05-11T10:30:26.527Z,21.98
2023-05-11T10:32:56.499Z,20.33
2023-05-11T10:35:24.746Z,20.48
2023-05-11T10:37:52.642Z,20.50
2023-05-11T10:40:21.156Z,19.15
2023-05-11T10:43:14.538Z,20.85
2023-05-11T10:45:52.165Z,20.95
2023-05-11T10:49:01.975Z,20.63
2023-05-11T10:51:46.989Z,21.75
2023-05-11T10:54:27.563Z,22.10
2023-05-11T10:57:10.063Z,23.27
2023-05-11T11:00:10.672Z,22.65
2023-05-11T11:02:38.927Z,24.65
2023-05-11T11:05:10.877Z,25.42
2023-05-11T11:07:58.700Z,25.95
2023-05-11T11:10:35.032Z,27.80
2023-05-11T11:13:04.454Z,27.17
2023-05-11T11:16:11.263Z,28.23
2023-05-11T11:18:40.495Z,28.17
2023-05-11T11:21:08.976Z,27.00
2023-05-11T11:23:44.344Z,28.50
2023-05-11T11:26:15.380Z,28.83
2023-05-11T11:29:14.397Z,28.98
2023-05-11T11:31:43.721Z,29.48
2023-05-11T11:34:33.893Z,31.10
2023-05-11T11:37:05.962Z,31.05
2023-05-11T11:39:58.379Z,32.72
2023-05-11T11:42:42.690Z,33.15
2023-05-11T11:45:32.487Z,31.25
2023-05-11T11:48:15.902Z,28.73
2023-05-11T11:50:46.085Z,29.40
2023-05-11T11:53:35.988Z,29.13
2023-05-11T11:56:04.117Z,30.55
2023-05-11T11:59:04.122Z,31.05
2023-05-11T12:01:37.589Z,30.17
2023-05-11T12:04:49.962Z,28.00
2023-05-11T12:07:21.487Z,27.70
2023-05-11T12:09:50.078Z,29.58
2023-05-11T12:12:21.820Z,28.00
2023-05-11T12:14:50.014Z,30.13
2023-05-11T12:17:25.565Z,29.58
2023-05-11T12:19:53.517Z,28.85
2023-05-11T12:22:26.927Z,27.52
2023-05-11T12:25:00.139Z,27.75
2023-05-11T12:27:28.437Z,26.85
2023-05-11T12:29:57.350Z,26.70
2023-05-11T12:32:29.320Z,28.80
2023-05-11T12:35:02.222Z,27.50
2023-05-11T12:37:31.994Z,27.77
2023-05-11T12:40:00.797Z,26.63
2023-05-11T12:42:28.876Z,25.35
2023-05-11T12:44:57.316Z,26.23
2023-05-11T12:47:25.448Z,23.38
2023-05-11T12:49:53.452Z,25.40
2023-05-11T12:52:24.566Z,27.67
2023-05-11T12:54:55.090Z,23.98
2023-05-11T12:57:27.503Z,24.67
2023-05-11T13:00:10.075Z,25.27
2023-05-11T13:02:45.681Z,24.42
2023-05-11T13:05:15.064Z,25.45
2023-05-11T13:07:44.107Z,23.45
2023-05-11T13:10:14.066Z,23.90
2023-05-11T13:12:52.346Z,25.05
2023-05-11T13:15:21.922Z,23.90
2023-05-11T13:17:56.716Z,23.17
2023-05-11T13:20:27.437Z,23.65
2023-05-11T13:23:05.409Z,23.08
2023-05-11T13:25:35.437Z,22.45
2023-05-11T13:28:04.141Z,22.42
2023-05-11T13:30:34.655Z,22.02
2023-05-11T13:33:03.000Z,22.38
2023-05-11T13:35:30.861Z,21.65
2023-05-11T13:37:59.758Z,21.13
2023-05-11T13:40:27.550Z,20.17
2023-05-11T13:42:57.196Z,21.90
2023-05-11T13:45:25.070Z,21.73
2023-05-11T13:47:53.160Z,19.75
2023-05-11T13:50:21.069Z,19.10
2023-05-11T13:52:49.242Z,20.48
2023-05-11T13:55:17.371Z,17.85
2023-05-11T13:57:45.658Z,19.35
2023-05-11T14:00:16.295Z,17.45
2023-05-11T14:02:45.202Z,17.42
2023-05-11T14:05:13.204Z,16.95
2023-05-11T14:07:47.129Z,16.85
2023-05-11T14:10:16.594Z,17.35
2023-05-11T14:12:44.350Z,15.55
2023-05-11T14:15:12.469Z,14.90
2023-05-11T14:17:43.118Z,15.00
2023-05-11T14:20:12.554Z,13.75
2023-05-11T14:22:41.111Z,11.57
2023-05-11T14:25:09.805Z,13.00
2023-05-11T14:27:37.764Z,11.07
2023-05-11T14:30:06.620Z,11.30
2023-05-11T14:32:34.500Z,12.25
2023-05-11T14:35:03.745Z,12.30
2023-05-11T14:37:31.575Z,9.23
2023-05-11T14:39:59.858Z,10.32
2023-05-11T14:42:29.474Z,8.77
2023-05-11T14:44:57.326Z,8.68
2023-05-11T14:47:25.458Z,9.52
2023-05-11T14:49:53.427Z,10.13
2023-05-11T14:52:22.581Z,9.30
2023-05-11T14:54:51.020Z,9.57
2023-05-11T14:57:18.843Z,8.93
2023-05-11T14:59:58.261Z,8.27
2023-05-11T15:02:27.523Z,8.57
2023-05-11T15:04:55.581Z,8.77
2023-05-11T15:07:24.820Z,9.18
2023-05-11T15:09:52.859Z,8.02
2023-05-11T15:12:20.638Z,9.43
2023-05-11T15:14:48.809Z,7.95
2023-05-11T15:17:16.702Z,8.15
2023-05-11T15:19:44.796Z,8.27
2023-05-11T15:22:12.709Z,8.18
2023-05-11T15:24:41.919Z,8.48
2023-05-11T15:27:10.211Z,8.25
2023-05-11T15:29:38.038Z,8.88
2023-05-11T15:32:06.935Z,10.10
2023-05-11T15:34:39.478Z,9.88
2023-05-11T15:37:12.354Z,9.07
2023-05-11T15:39:41.593Z,8.93
2023-05-11T15:42:09.843Z,9.60
2023-05-11T15:44:37.654Z,8.80
2023-05-11T15:47:06.168Z,10.00
2023-05-11T15:49:34.025Z,9.88
2023-05-11T15:52:02.007Z,8.88
2023-05-11T15:54:29.930Z,9.93
2023-05-11T15:56:59.076Z,8.43
2023-05-11T15:59:27.112Z,8.73
2023-05-11T16:01:54.960Z,8.88
2023-05-11T16:04:22.855Z,8.65
2023-05-11T16:06:50.661Z,10.43
2023-05-11T16:09:18.515Z,12.55
2023-05-11T16:11:46.318Z,10.98
2023-05-11T16:14:15.598Z,11.77
2023-05-11T16:16:44.012Z,11.90
2023-05-11T16:19:11.911Z,11.73
2023-05-11T16:21:39.810Z,11.90
2023-05-11T16:24:11.407Z,12.18
2023-05-11T16:26:39.305Z,11.20
2023-05-11T16:29:07.154Z,11.15
2023-05-11T16:31:36.337Z,12.00
2023-05-11T16:34:04.305Z,11.30
2023-05-11T16:36:32.150Z,11.93
2023-05-11T16:38:59.992Z,10.95
2023-05-11T16:41:28.727Z,12.20
2023-05-11T16:43:56.674Z,11.02
2023-05-11T16:46:24.551Z,12.70
2023-05-11T16:48:53.826Z,13.55
2023-05-11T16:51:21.790Z,13.55
2023-05-11T16:53:49.660Z,15.63
2023-05-11T16:56:17.521Z,17.10
2023-05-11T16:58:45.513Z,16.45
2023-05-11T17:01:14.403Z,15.40
2023-05-11T17:03:42.572Z,15.73
2023-05-11T17:06:14.546Z,14.40
2023-05-11T17:08:42.296Z,15.13
2023-05-11T17:11:10.164Z,15.23
2023-05-11T17:13:38.139Z,14.65
2023-05-11T17:16:06.320Z,15.23
2023-05-11T17:18:34.490Z,16.20
2023-05-11T17:21:02.287Z,15.57
2023-05-11T17:23:31.562Z,14.77
2023-05-11T17:26:00.042Z,14.57
2023-05-11T17:28:27.882Z,13.70
2023-05-11T17:30:55.714Z,15.13
2023-05-11T17:33:23.845Z,14.30
2023-05-11T17:35:51.753Z,14.63
2023-05-11T17:38:19.704Z,13.05
2023-05-11T17:40:48.944Z,13.35
2023-05-11T17:43:17.178Z,11.45
2023-05-11T17:45:44.986Z,11.10
2023-05-11T17:48:13.913Z,10.75
2023-05-11T17:50:41.711Z,11.57
2023-05-11T17:53:09.596Z,10.02
2023-05-11T17:55:39.430Z,9.65
2023-05-11T17:58:08.631Z,9.32
2023-05-11T18:00:36.821Z,9.13
2023-05-11T18:03:05.960Z,8.23
2023-05-11T18:05:47.506Z,8.68
2023-05-11T18:08:16.165Z,7.88
2023-05-11T18:10:44.197Z,6.78
2023-05-11T18:13:14.249Z,6.80
2023-05-11T18:15:43.981Z,6.72
2023-05-11T18:18:11.995Z,6.57
2023-05-11T18:20:40.141Z,6.00
2023-05-11T18:23:08.124Z,6.40
2023-05-11T18:25:36.058Z,6.38
2023-05-11T18:28:04.385Z,5.55
2023-05-11T18:30:34.821Z,6.97
2023-05-11T18:33:02.854Z,6.03
2023-05-11T18:35:31.677Z,5.53
2023-05-11T18:38:02.210Z,6.00
2023-05-11T18:40:30.034Z,6.90
2023-05-11T18:42:57.852Z,6.57
2023-05-11T18:45:28.496Z,6.05
2023-05-11T18:47:57.816Z,6.35
2023-05-11T18:50:27.011Z,7.03
2023-05-11T18:52:54.962Z,6.47
2023-05-11T18:55:22.950Z,7.03
2023-05-11T18:57:50.888Z,6.20
2023-05-11T19:00:19.594Z,6.13
2023-05-11T19:02:48.157Z,6.43
2023-05-11T19:05:17.532Z,6.20
2023-05-11T19:07:45.303Z,6.82
2023-05-11T19:10:13.515Z,7.13
2023-05-11T19:12:41.303Z,7.55
2023-05-11T19:15:10.422Z,6.50
2023-05-11T19:17:38.300Z,6.07
2023-05-11T19:20:08.237Z,6.70
2023-05-11T19:22:37.587Z,5.60
2023-05-11T19:25:06.430Z,6.57
2023-05-11T19:27:34.244Z,7.25
2023-05-11T19:30:02.011Z,5.85
2023-05-11T19:32:29.828Z,6.28
2023-05-11T19:34:57.616Z,6.07
2023-05-11T19:37:25.452Z,6.03
2023-05-11T19:39:59.527Z,5.75
2023-05-11T19:42:39.969Z,5.82
2023-05-11T19:45:11.374Z,5.93
2023-05-11T19:47:39.966Z,6.00
2023-05-11T19:50:08.872Z,5.90
2023-05-11T19:52:37.696Z,6.20
2023-05-11T19:55:08.096Z,5.70
2023-05-11T19:57:37.469Z,6.47
2023-05-11T20:00:06.629Z,6.05
2023-05-11T20:02:35.553Z,6.05
2023-05-11T20:05:04.297Z,5.53
2023-05-11T20:07:32.250Z,6.35
2023-05-11T20:10:00.132Z,5.70
2023-05-11T20:12:29.297Z,5.82
2023-05-11T20:14:57.296Z,6.25
2023-05-11T20:17:25.524Z,5.97
2023-05-11T20:19:53.429Z,5.97
2023-05-11T20:22:22.612Z,6.18
2023-05-11T20:24:50.491Z,6.30
2023-05-11T20:27:18.450Z,5.63
2023-05-11T20:29:47.663Z,5.35
2023-05-11T20:32:15.478Z,5.78
2023-05-11T20:34:43.328Z,6.18
2023-05-11T20:37:11.086Z,5.85
2023-05-11T20:39:40.219Z,6.97
2023-05-11T20:42:08.764Z,6.30
2023-05-11T20:44:36.513Z,6.18
2023-05-11T20:47:06.389Z,5.57
2023-05-11T20:49:38.691Z,6.10
2023-05-11T20:52:07.765Z,5.93
2023-05-11T20:54:35.914Z,4.70
2023-05-11T20:57:04.708Z,5.63
2023-05-11T21:02:05.990Z,5.03
2023-05-11T21:04:34.065Z,4.57
2023-05-11T21:07:01.900Z,5.50
2023-05-11T21:09:29.655Z,5.07
2023-05-11T21:11:57.512Z,4.95
2023-05-11T21:14:25.247Z,5.22
2023-05-11T21:16:53.027Z,4.70
2023-05-11T21:19:22.300Z,5.63
2023-05-11T21:21:50.183Z,5.32
2023-05-11T21:24:20.258Z,5.05
2023-05-11T21:26:48.346Z,5.07
2023-05-11T21:29:16.215Z,4.60
2023-05-11T21:31:43.969Z,4.60
2023-05-11T21:34:11.937Z,5.53
2023-05-11T21:36:41.560Z,4.80
2023-05-11T21:39:09.314Z,4.35
2023-05-11T21:41:37.246Z,4.85
2023-05-11T21:44:05.953Z,5.32
2023-05-11T21:46:33.823Z,5.35
2023-05-11T21:49:01.625Z,5.63
2023-05-11T21:51:29.383Z,5.07
2023-05-11T21:53:58.576Z,4.85
2023-05-11T21:56:26.567Z,5.57
2023-05-11T21:58:54.331Z,5.00
2023-05-11T22:01:22.585Z,5.50
2023-05-11T22:03:50.525Z,5.25
2023-05-11T22:06:18.594Z,4.93
2023-05-11T22:08:46.556Z,5.30
2023-05-11T22:11:15.732Z,4.90
2023-05-11T22:13:44.614Z,5.63
2023-05-11T22:16:12.443Z,4.40
2023-05-11T22:18:40.376Z,5.88
2023-05-11T22:21:08.138Z,4.75
2023-05-11T22:23:36.596Z,4.93
2023-05-11T22:26:04.580Z,5.28
2023-05-11T22:28:34.096Z,5.03
2023-05-11T22:31:02.436Z,4.82
2023-05-11T22:33:30.191Z,4.93
2023-05-11T22:35:57.980Z,4.88
2023-05-11T22:38:25.863Z,4.80
2023-05-11T22:40:53.676Z,4.88
2023-05-11T22:43:21.471Z,5.72
2023-05-11T22:45:50.670Z,5.50
2023-05-11T22:48:18.674Z,6.65
2023-05-11T22:50:47.591Z,7.07
2023-05-11T22:53:15.811Z,7.30
2023-05-11T22:55:43.581Z,6.20
2023-05-11T22:58:11.447Z,7.13
2023-05-11T23:00:39.327Z,6.50
2023-05-11T23:03:08.794Z,6.72
2023-05-11T23:05:37.214Z,6.45
2023-05-11T23:08:05.008Z,6.45
2023-05-11T23:10:33.431Z,6.75
2023-05-11T23:13:01.244Z,6.28
2023-05-11T23:15:28.969Z,6.38
2023-05-11T23:17:56.912Z,5.95
2023-05-11T23:20:26.198Z,7.43
2023-05-11T23:22:54.016Z,6.60
2023-05-11T23:25:21.790Z,5.93
2023-05-11T23:27:49.576Z,5.88
2023-05-11T23:30:17.963Z,6.57
2023-05-11T23:32:46.086Z,5.95
2023-05-11T23:35:14.237Z,6.35
2023-05-11T23:37:43.443Z,6.55
2023-05-11T23:40:11.826Z,6.05
2023-05-11T23:42:39.773Z,6.90
2023-05-11T23:45:08.772Z,6.22
2023-05-11T23:47:37.311Z,6.20
2023-05-11T23:50:05.819Z,6.15
2023-05-11T23:52:33.626Z,6.35
2023-05-11T23:55:02.905Z,6.43
2023-05-11T23:57:30.697Z,6.47
2023-05-11T23:59:58.768Z,5.40
